sensor_id;sensor_type;location;lat;lon;timestamp;P1;durP1;ratioP1;P2;durP2;ratioP2
64321;SDS011;50659;48.078;16.308;2022-07-05T00:00:34;4.70;;;3.17;;
64321;SDS011;50659;48.078;16.308;2022-07-05T00:04:39;5.35;;;2.95;;
64321;SDS011;50659;48.078;16.308;2022-07-05T00:08:43;8.75;;;3.88;;
64321;SDS011;50659;48.078;16.308;2022-07-05T00:12:46;4.18;;;3.28;;
64321;SDS011;50659;48.078;16.308;2022-07-05T00:16:49;4.15;;;2.80;;
64321;SDS011;50659;48.078;16.308;2022-07-05T00:20:53;3.80;;;2.95;;
64321;SDS011;50659;48.078;16.308;2022-07-05T00:24:57;4.28;;;3.28;;
64321;SDS011;50659;48.078;16.308;2022-07-05T00:29:00;4.53;;;3.17;;
64321;SDS011;50659;48.078;16.308;2022-07-05T00:33:03;4.35;;;3.33;;
64321;SDS011;50659;48.078;16.308;2022-07-05T00:37:07;4.00;;;3.40;;
64321;SDS011;50659;48.078;16.308;2022-07-05T00:41:10;4.07;;;3.20;;
64321;SDS011;50659;48.078;16.308;2022-07-05T00:45:13;2.95;;;2.60;;
64321;SDS011;50659;48.078;16.308;2022-07-05T00:49:16;3.33;;;3.00;;
64321;SDS011;50659;48.078;16.308;2022-07-05T00:53:21;6.40;;;3.03;;
64321;SDS011;50659;48.078;16.308;2022-07-05T00:57:24;3.67;;;2.75;;
64321;SDS011;50659;48.078;16.308;2022-07-05T01:01:27;5.45;;;2.60;;
64321;SDS011;50659;48.078;16.308;2022-07-05T01:05:30;3.40;;;2.55;;
64321;SDS011;50659;48.078;16.308;2022-07-05T01:09:36;4.55;;;2.97;;
64321;SDS011;50659;48.078;16.308;2022-07-05T01:13:39;3.42;;;2.63;;
64321;SDS011;50659;48.078;16.308;2022-07-05T01:17:42;3.50;;;2.90;;
64321;SDS011;50659;48.078;16.308;2022-07-05T01:21:46;3.47;;;2.88;;
64321;SDS011;50659;48.078;16.308;2022-07-05T01:25:52;4.57;;;2.97;;
64321;SDS011;50659;48.078;16.308;2022-07-05T01:29:56;3.60;;;2.80;;
64321;SDS011;50659;48.078;16.308;2022-07-05T01:33:59;3.13;;;2.83;;
64321;SDS011;50659;48.078;16.308;2022-07-05T01:38:02;4.78;;;3.30;;
64321;SDS011;50659;48.078;16.308;2022-07-05T01:42:07;6.25;;;2.80;;
64321;SDS011;50659;48.078;16.308;2022-07-05T01:46:11;6.00;;;2.75;;
64321;SDS011;50659;48.078;16.308;2022-07-05T01:50:17;4.43;;;3.00;;
64321;SDS011;50659;48.078;16.308;2022-07-05T01:54:24;5.03;;;2.78;;
64321;SDS011;50659;48.078;16.308;2022-07-05T01:58:29;5.65;;;3.50;;
64321;SDS011;50659;48.078;16.308;2022-07-05T02:02:33;4.65;;;3.50;;
64321;SDS011;50659;48.078;16.308;2022-07-05T02:06:36;5.13;;;3.83;;
64321;SDS011;50659;48.078;16.308;2022-07-05T02:10:41;5.45;;;4.00;;
64321;SDS011;50659;48.078;16.308;2022-07-05T02:14:47;5.82;;;4.13;;
64321;SDS011;50659;48.078;16.308;2022-07-05T02:18:53;6.03;;;4.35;;
64321;SDS011;50659;48.078;16.308;2022-07-05T02:22:58;7.38;;;3.72;;
64321;SDS011;50659;48.078;16.308;2022-07-05T02:27:03;4.43;;;3.30;;
64321;SDS011;50659;48.078;16.308;2022-07-05T02:31:08;4.65;;;3.70;;
64321;SDS011;50659;48.078;16.308;2022-07-05T02:35:12;4.65;;;3.33;;
64321;SDS011;50659;48.078;16.308;2022-07-05T02:39:16;3.80;;;3.40;;
64321;SDS011;50659;48.078;16.308;2022-07-05T02:43:21;4.07;;;3.28;;
64321;SDS011;50659;48.078;16.308;2022-07-05T02:47:26;5.10;;;3.10;;
64321;SDS011;50659;48.078;16.308;2022-07-05T02:51:32;5.00;;;2.80;;
64321;SDS011;50659;48.078;16.308;2022-07-05T02:55:36;4.55;;;2.88;;
64321;SDS011;50659;48.078;16.308;2022-07-05T02:59:39;6.03;;;3.30;;
64321;SDS011;50659;48.078;16.308;2022-07-05T03:03:44;3.90;;;2.90;;
64321;SDS011;50659;48.078;16.308;2022-07-05T03:07:49;3.85;;;2.95;;
64321;SDS011;50659;48.078;16.308;2022-07-05T03:11:53;3.95;;;2.78;;
64321;SDS011;50659;48.078;16.308;2022-07-05T03:15:56;3.15;;;2.72;;
64321;SDS011;50659;48.078;16.308;2022-07-05T03:20:01;2.90;;;2.60;;
64321;SDS011;50659;48.078;16.308;2022-07-05T03:24:05;7.47;;;2.70;;
64321;SDS011;50659;48.078;16.308;2022-07-05T03:28:10;2.70;;;2.40;;
64321;SDS011;50659;48.078;16.308;2022-07-05T03:32:16;2.22;;;2.03;;
64321;SDS011;50659;48.078;16.308;2022-07-05T03:36:22;2.80;;;2.47;;
64321;SDS011;50659;48.078;16.308;2022-07-05T03:40:25;4.97;;;2.70;;
64321;SDS011;50659;48.078;16.308;2022-07-05T03:44:29;4.07;;;2.47;;
64321;SDS011;50659;48.078;16.308;2022-07-05T03:48:36;3.42;;;2.50;;
64321;SDS011;50659;48.078;16.308;2022-07-05T03:52:44;2.83;;;2.40;;
64321;SDS011;50659;48.078;16.308;2022-07-05T03:56:48;2.70;;;2.50;;
64321;SDS011;50659;48.078;16.308;2022-07-05T04:00:52;3.63;;;2.67;;
64321;SDS011;50659;48.078;16.308;2022-07-05T04:04:59;4.40;;;2.70;;
64321;SDS011;50659;48.078;16.308;2022-07-05T04:09:04;3.33;;;2.60;;
64321;SDS011;50659;48.078;16.308;2022-07-05T04:13:08;4.75;;;3.00;;
64321;SDS011;50659;48.078;16.308;2022-07-05T04:17:11;3.03;;;2.70;;
64321;SDS011;50659;48.078;16.308;2022-07-05T04:21:15;6.38;;;3.13;;
64321;SDS011;50659;48.078;16.308;2022-07-05T04:25:20;4.85;;;3.05;;
64321;SDS011;50659;48.078;16.308;2022-07-05T04:29:43;5.28;;;2.55;;
64321;SDS011;50659;48.078;16.308;2022-07-05T04:33:47;3.85;;;2.90;;
64321;SDS011;50659;48.078;16.308;2022-07-05T04:37:54;4.32;;;3.03;;
64321;SDS011;50659;48.078;16.308;2022-07-05T04:42:00;6.60;;;2.60;;
64321;SDS011;50659;48.078;16.308;2022-07-05T04:46:03;6.57;;;2.92;;
64321;SDS011;50659;48.078;16.308;2022-07-05T04:50:07;3.20;;;2.90;;
64321;SDS011;50659;48.078;16.308;2022-07-05T04:54:11;6.55;;;2.75;;
64321;SDS011;50659;48.078;16.308;2022-07-05T04:58:16;5.03;;;3.40;;
64321;SDS011;50659;48.078;16.308;2022-07-05T05:02:19;4.57;;;3.10;;
64321;SDS011;50659;48.078;16.308;2022-07-05T05:06:22;5.30;;;3.20;;
64321;SDS011;50659;48.078;16.308;2022-07-05T05:10:25;5.43;;;3.10;;
64321;SDS011;50659;48.078;16.308;2022-07-05T05:14:29;3.63;;;2.97;;
64321;SDS011;50659;48.078;16.308;2022-07-05T05:18:32;4.03;;;3.10;;
64321;SDS011;50659;48.078;16.308;2022-07-05T05:22:35;3.80;;;3.22;;
64321;SDS011;50659;48.078;16.308;2022-07-05T05:26:38;4.63;;;3.13;;
64321;SDS011;50659;48.078;16.308;2022-07-05T05:30:43;4.82;;;3.17;;
64321;SDS011;50659;48.078;16.308;2022-07-05T05:34:46;5.88;;;2.88;;
64321;SDS011;50659;48.078;16.308;2022-07-05T05:38:49;5.30;;;2.70;;
64321;SDS011;50659;48.078;16.308;2022-07-05T05:42:52;4.47;;;3.22;;
64321;SDS011;50659;48.078;16.308;2022-07-05T05:46:58;5.70;;;2.90;;
64321;SDS011;50659;48.078;16.308;2022-07-05T05:51:01;3.65;;;3.03;;
64321;SDS011;50659;48.078;16.308;2022-07-05T05:55:05;3.40;;;3.10;;
64321;SDS011;50659;48.078;16.308;2022-07-05T05:59:08;5.57;;;3.00;;
64321;SDS011;50659;48.078;16.308;2022-07-05T06:03:13;6.15;;;2.70;;
64321;SDS011;50659;48.078;16.308;2022-07-05T06:07:17;3.42;;;2.50;;
64321;SDS011;50659;48.078;16.308;2022-07-05T06:11:20;3.70;;;2.35;;
64321;SDS011;50659;48.078;16.308;2022-07-05T06:15:23;2.40;;;2.20;;
64321;SDS011;50659;48.078;16.308;2022-07-05T06:19:28;3.28;;;2.38;;
64321;SDS011;50659;48.078;16.308;2022-07-05T06:23:31;3.25;;;2.95;;
64321;SDS011;50659;48.078;16.308;2022-07-05T06:27:37;2.55;;;2.10;;
64321;SDS011;50659;48.078;16.308;2022-07-05T06:31:41;3.15;;;2.15;;
64321;SDS011;50659;48.078;16.308;2022-07-05T06:35:45;2.35;;;2.15;;
64321;SDS011;50659;48.078;16.308;2022-07-05T06:39:48;2.00;;;1.83;;
64321;SDS011;50659;48.078;16.308;2022-07-05T06:43:51;4.18;;;2.17;;
64321;SDS011;50659;48.078;16.308;2022-07-05T06:48:13;4.13;;;2.00;;
64321;SDS011;50659;48.078;16.308;2022-07-05T06:52:18;2.72;;;2.08;;
64321;SDS011;50659;48.078;16.308;2022-07-05T06:56:21;2.58;;;2.20;;
64321;SDS011;50659;48.078;16.308;2022-07-05T07:00:24;3.03;;;2.10;;
64321;SDS011;50659;48.078;16.308;2022-07-05T07:04:47;2.38;;;1.90;;
64321;SDS011;50659;48.078;16.308;2022-07-05T07:09:12;2.72;;;2.20;;
64321;SDS011;50659;48.078;16.308;2022-07-05T07:13:22;2.10;;;1.90;;
64321;SDS011;50659;48.078;16.308;2022-07-05T07:17:25;2.58;;;1.92;;
64321;SDS011;50659;48.078;16.308;2022-07-05T07:21:28;2.05;;;1.40;;
64321;SDS011;50659;48.078;16.308;2022-07-05T07:25:32;1.90;;;1.73;;
64321;SDS011;50659;48.078;16.308;2022-07-05T07:29:36;2.92;;;1.45;;
64321;SDS011;50659;48.078;16.308;2022-07-05T07:33:40;2.05;;;1.67;;
64321;SDS011;50659;48.078;16.308;2022-07-05T07:37:48;1.50;;;1.40;;
64321;SDS011;50659;48.078;16.308;2022-07-05T07:41:53;2.20;;;1.60;;
64321;SDS011;50659;48.078;16.308;2022-07-05T07:45:56;2.30;;;1.30;;
64321;SDS011;50659;48.078;16.308;2022-07-05T07:49:59;2.83;;;1.13;;
64321;SDS011;50659;48.078;16.308;2022-07-05T07:54:02;1.02;;;0.93;;
64321;SDS011;50659;48.078;16.308;2022-07-05T07:58:07;1.05;;;0.98;;
64321;SDS011;50659;48.078;16.308;2022-07-05T08:02:10;0.90;;;0.80;;
64321;SDS011;50659;48.078;16.308;2022-07-05T08:06:13;1.55;;;0.80;;
64321;SDS011;50659;48.078;16.308;2022-07-05T08:10:17;0.95;;;0.80;;
64321;SDS011;50659;48.078;16.308;2022-07-05T08:14:21;1.55;;;0.80;;
64321;SDS011;50659;48.078;16.308;2022-07-05T08:18:25;0.70;;;0.70;;
64321;SDS011;50659;48.078;16.308;2022-07-05T08:22:45;0.90;;;0.73;;
64321;SDS011;50659;48.078;16.308;2022-07-05T08:26:49;0.95;;;0.80;;
64321;SDS011;50659;48.078;16.308;2022-07-05T08:30:53;3.35;;;0.70;;
64321;SDS011;50659;48.078;16.308;2022-07-05T08:34:56;0.85;;;0.70;;
64321;SDS011;50659;48.078;16.308;2022-07-05T08:38:59;2.65;;;0.80;;
64321;SDS011;50659;48.078;16.308;2022-07-05T08:43:03;0.93;;;0.80;;
64321;SDS011;50659;48.078;16.308;2022-07-05T08:47:10;0.93;;;0.73;;
64321;SDS011;50659;48.078;16.308;2022-07-05T08:51:15;0.75;;;0.70;;
64321;SDS011;50659;48.078;16.308;2022-07-05T08:55:19;1.80;;;0.95;;
64321;SDS011;50659;48.078;16.308;2022-07-05T08:59:24;2.45;;;0.90;;
64321;SDS011;50659;48.078;16.308;2022-07-05T09:03:29;1.20;;;1.10;;
64321;SDS011;50659;48.078;16.308;2022-07-05T09:07:34;1.30;;;0.90;;
64321;SDS011;50659;48.078;16.308;2022-07-05T09:11:41;2.28;;;0.90;;
64321;SDS011;50659;48.078;16.308;2022-07-05T09:16:08;1.48;;;1.02;;
64321;SDS011;50659;48.078;16.308;2022-07-05T09:20:14;1.50;;;1.00;;
64321;SDS011;50659;48.078;16.308;2022-07-05T09:24:18;2.15;;;1.13;;
64321;SDS011;50659;48.078;16.308;2022-07-05T09:28:22;1.30;;;1.10;;
64321;SDS011;50659;48.078;16.308;2022-07-05T09:32:25;1.30;;;1.20;;
64321;SDS011;50659;48.078;16.308;2022-07-05T09:36:48;1.67;;;1.10;;
64321;SDS011;50659;48.078;16.308;2022-07-05T09:40:52;1.30;;;1.10;;
64321;SDS011;50659;48.078;16.308;2022-07-05T09:44:57;1.92;;;1.30;;
64321;SDS011;50659;48.078;16.308;2022-07-05T09:49:00;1.10;;;1.00;;
64321;SDS011;50659;48.078;16.308;2022-07-05T09:53:04;1.88;;;1.20;;
64321;SDS011;50659;48.078;16.308;2022-07-05T09:57:23;1.23;;;1.10;;
64321;SDS011;50659;48.078;16.308;2022-07-05T10:01:27;2.45;;;1.20;;
64321;SDS011;50659;48.078;16.308;2022-07-05T10:05:31;1.25;;;1.00;;
64321;SDS011;50659;48.078;16.308;2022-07-05T10:09:37;3.50;;;1.00;;
64321;SDS011;50659;48.078;16.308;2022-07-05T10:13:40;1.73;;;1.00;;
64321;SDS011;50659;48.078;16.308;2022-07-05T10:17:44;1.60;;;1.10;;
64321;SDS011;50659;48.078;16.308;2022-07-05T10:21:48;2.58;;;1.20;;
64321;SDS011;50659;48.078;16.308;2022-07-05T10:26:14;1.20;;;1.10;;
64321;SDS011;50659;48.078;16.308;2022-07-05T10:30:19;3.10;;;1.20;;
64321;SDS011;50659;48.078;16.308;2022-07-05T10:34:23;1.27;;;1.13;;
64321;SDS011;50659;48.078;16.308;2022-07-05T10:38:46;2.78;;;1.23;;
64321;SDS011;50659;48.078;16.308;2022-07-05T10:42:52;1.45;;;1.30;;
64321;SDS011;50659;48.078;16.308;2022-07-05T10:47:08;2.83;;;1.27;;
64321;SDS011;50659;48.078;16.308;2022-07-05T10:51:14;1.60;;;1.23;;
64321;SDS011;50659;48.078;16.308;2022-07-05T10:55:18;2.28;;;1.60;;
64321;SDS011;50659;48.078;16.308;2022-07-05T10:59:25;2.10;;;1.52;;
64321;SDS011;50659;48.078;16.308;2022-07-05T11:03:37;3.25;;;1.40;;
64321;SDS011;50659;48.078;16.308;2022-07-05T11:07:58;3.60;;;1.50;;
64321;SDS011;50659;48.078;16.308;2022-07-05T11:12:06;1.73;;;1.50;;
64321;SDS011;50659;48.078;16.308;2022-07-05T11:16:30;2.63;;;1.63;;
64321;SDS011;50659;48.078;16.308;2022-07-05T11:20:35;2.70;;;1.60;;
64321;SDS011;50659;48.078;16.308;2022-07-05T11:24:38;3.28;;;1.63;;
64321;SDS011;50659;48.078;16.308;2022-07-05T11:28:42;1.95;;;1.70;;
64321;SDS011;50659;48.078;16.308;2022-07-05T11:32:47;3.10;;;1.60;;
64321;SDS011;50659;48.078;16.308;2022-07-05T11:41:29;2.22;;;1.80;;
64321;SDS011;50659;48.078;16.308;2022-07-05T11:45:33;3.42;;;2.10;;
64321;SDS011;50659;48.078;16.308;2022-07-05T11:49:38;4.78;;;1.90;;
64321;SDS011;50659;48.078;16.308;2022-07-05T11:53:41;2.47;;;2.00;;
64321;SDS011;50659;48.078;16.308;2022-07-05T11:58:08;2.00;;;1.80;;
64321;SDS011;50659;48.078;16.308;2022-07-05T12:02:12;2.80;;;1.90;;
64321;SDS011;50659;48.078;16.308;2022-07-05T12:06:17;4.32;;;2.50;;
64321;SDS011;50659;48.078;16.308;2022-07-05T12:10:22;4.93;;;2.15;;
64321;SDS011;50659;48.078;16.308;2022-07-05T12:15:03;2.78;;;2.00;;
64321;SDS011;50659;48.078;16.308;2022-07-05T12:19:06;2.00;;;1.80;;
64321;SDS011;50659;48.078;16.308;2022-07-05T12:23:11;4.28;;;2.00;;
64321;SDS011;50659;48.078;16.308;2022-07-05T12:27:22;2.63;;;2.10;;
64321;SDS011;50659;48.078;16.308;2022-07-05T12:31:25;2.75;;;2.00;;
64321;SDS011;50659;48.078;16.308;2022-07-05T12:35:29;3.28;;;2.35;;
64321;SDS011;50659;48.078;16.308;2022-07-05T12:39:35;3.55;;;1.80;;
64321;SDS011;50659;48.078;16.308;2022-07-05T12:43:48;2.35;;;1.80;;
64321;SDS011;50659;48.078;16.308;2022-07-05T12:47:52;4.32;;;2.20;;
64321;SDS011;50659;48.078;16.308;2022-07-05T12:52:02;2.42;;;2.00;;
64321;SDS011;50659;48.078;16.308;2022-07-05T12:56:10;3.40;;;1.88;;
64321;SDS011;50659;48.078;16.308;2022-07-05T13:00:31;2.33;;;1.80;;
64321;SDS011;50659;48.078;16.308;2022-07-05T13:04:35;2.20;;;1.80;;
64321;SDS011;50659;48.078;16.308;2022-07-05T13:08:55;1.88;;;1.70;;
64321;SDS011;50659;48.078;16.308;2022-07-05T13:13:00;2.50;;;1.75;;
64321;SDS011;50659;48.078;16.308;2022-07-05T13:17:04;2.38;;;1.75;;
64321;SDS011;50659;48.078;16.308;2022-07-05T13:21:07;2.00;;;1.60;;
64321;SDS011;50659;48.078;16.308;2022-07-05T13:25:10;3.33;;;1.70;;
64321;SDS011;50659;48.078;16.308;2022-07-05T13:29:15;3.17;;;1.70;;
64321;SDS011;50659;48.078;16.308;2022-07-05T13:33:18;2.40;;;1.60;;
64321;SDS011;50659;48.078;16.308;2022-07-05T13:37:27;1.63;;;1.52;;
64321;SDS011;50659;48.078;16.308;2022-07-05T13:41:30;2.85;;;1.88;;
64321;SDS011;50659;48.078;16.308;2022-07-05T13:45:35;2.28;;;1.70;;
64321;SDS011;50659;48.078;16.308;2022-07-05T13:49:38;21.05;;;4.20;;
64321;SDS011;50659;48.078;16.308;2022-07-05T13:53:44;2.83;;;1.80;;
64321;SDS011;50659;48.078;16.308;2022-07-05T13:57:47;2.72;;;1.80;;
64321;SDS011;50659;48.078;16.308;2022-07-05T14:01:51;7.18;;;2.20;;
64321;SDS011;50659;48.078;16.308;2022-07-05T14:05:54;7.38;;;2.42;;
64321;SDS011;50659;48.078;16.308;2022-07-05T14:09:58;1.83;;;1.73;;
64321;SDS011;50659;48.078;16.308;2022-07-05T14:14:01;2.65;;;1.70;;
64321;SDS011;50659;48.078;16.308;2022-07-05T14:18:06;2.35;;;1.80;;
64321;SDS011;50659;48.078;16.308;2022-07-05T14:22:09;2.85;;;2.00;;
64321;SDS011;50659;48.078;16.308;2022-07-05T14:26:12;4.07;;;2.10;;
64321;SDS011;50659;48.078;16.308;2022-07-05T14:30:15;3.70;;;1.95;;
64321;SDS011;50659;48.078;16.308;2022-07-05T14:34:20;2.25;;;2.00;;
64321;SDS011;50659;48.078;16.308;2022-07-05T14:38:23;3.25;;;1.90;;
64321;SDS011;50659;48.078;16.308;2022-07-05T14:42:26;3.13;;;2.25;;
64321;SDS011;50659;48.078;16.308;2022-07-05T14:46:29;2.65;;;2.05;;
64321;SDS011;50659;48.078;16.308;2022-07-05T14:50:33;2.72;;;2.03;;
64321;SDS011;50659;48.078;16.308;2022-07-05T14:54:36;2.30;;;2.10;;
64321;SDS011;50659;48.078;16.308;2022-07-05T14:58:39;2.65;;;2.10;;
64321;SDS011;50659;48.078;16.308;2022-07-05T15:02:43;2.63;;;2.00;;
64321;SDS011;50659;48.078;16.308;2022-07-05T15:06:47;2.35;;;2.10;;
64321;SDS011;50659;48.078;16.308;2022-07-05T15:10:50;4.18;;;2.22;;
64321;SDS011;50659;48.078;16.308;2022-07-05T15:14:54;3.90;;;2.15;;
64321;SDS011;50659;48.078;16.308;2022-07-05T15:19:00;4.93;;;2.10;;
64321;SDS011;50659;48.078;16.308;2022-07-05T15:23:04;2.40;;;1.77;;
64321;SDS011;50659;48.078;16.308;2022-07-05T15:27:07;3.55;;;2.10;;
64321;SDS011;50659;48.078;16.308;2022-07-05T15:31:19;3.78;;;2.20;;
64321;SDS011;50659;48.078;16.308;2022-07-05T15:35:23;3.90;;;2.20;;
64321;SDS011;50659;48.078;16.308;2022-07-05T15:39:27;5.82;;;2.38;;
64321;SDS011;50659;48.078;16.308;2022-07-05T15:43:30;2.70;;;2.40;;
64321;SDS011;50659;48.078;16.308;2022-07-05T15:47:33;2.35;;;1.98;;
64321;SDS011;50659;48.078;16.308;2022-07-05T15:51:38;3.72;;;2.63;;
64321;SDS011;50659;48.078;16.308;2022-07-05T15:55:43;3.08;;;2.60;;
64321;SDS011;50659;48.078;16.308;2022-07-05T15:59:46;3.10;;;2.75;;
64321;SDS011;50659;48.078;16.308;2022-07-05T16:03:49;4.60;;;2.60;;
64321;SDS011;50659;48.078;16.308;2022-07-05T16:07:52;6.25;;;2.88;;
64321;SDS011;50659;48.078;16.308;2022-07-05T16:11:56;3.22;;;2.75;;
64321;SDS011;50659;48.078;16.308;2022-07-05T16:15:59;4.15;;;3.03;;
64321;SDS011;50659;48.078;16.308;2022-07-05T16:20:14;5.03;;;3.08;;
64321;SDS011;50659;48.078;16.308;2022-07-05T16:24:18;4.53;;;2.90;;
64321;SDS011;50659;48.078;16.308;2022-07-05T16:28:22;3.25;;;2.95;;
64321;SDS011;50659;48.078;16.308;2022-07-05T16:32:26;4.38;;;2.90;;
64321;SDS011;50659;48.078;16.308;2022-07-05T16:36:29;4.70;;;3.05;;
64321;SDS011;50659;48.078;16.308;2022-07-05T16:40:32;2.75;;;2.55;;
64321;SDS011;50659;48.078;16.308;2022-07-05T16:44:36;6.72;;;2.90;;
64321;SDS011;50659;48.078;16.308;2022-07-05T16:48:40;3.42;;;2.72;;
64321;SDS011;50659;48.078;16.308;2022-07-05T16:52:44;4.18;;;3.22;;
64321;SDS011;50659;48.078;16.308;2022-07-05T16:56:47;4.32;;;2.90;;
64321;SDS011;50659;48.078;16.308;2022-07-05T17:01:00;3.53;;;2.90;;
64321;SDS011;50659;48.078;16.308;2022-07-05T17:05:04;5.32;;;3.05;;
64321;SDS011;50659;48.078;16.308;2022-07-05T17:09:08;4.47;;;2.92;;
64321;SDS011;50659;48.078;16.308;2022-07-05T17:13:11;3.40;;;3.10;;
64321;SDS011;50659;48.078;16.308;2022-07-05T17:17:16;4.32;;;3.10;;
64321;SDS011;50659;48.078;16.308;2022-07-05T17:21:19;4.45;;;3.00;;
64321;SDS011;50659;48.078;16.308;2022-07-05T17:25:22;3.30;;;3.00;;
64321;SDS011;50659;48.078;16.308;2022-07-05T17:29:26;3.35;;;3.00;;
64321;SDS011;50659;48.078;16.308;2022-07-05T17:33:31;4.72;;;3.20;;
64321;SDS011;50659;48.078;16.308;2022-07-05T17:37:34;5.68;;;3.55;;
64321;SDS011;50659;48.078;16.308;2022-07-05T17:41:37;5.32;;;3.60;;
64321;SDS011;50659;48.078;16.308;2022-07-05T17:45:40;6.15;;;3.38;;
64321;SDS011;50659;48.078;16.308;2022-07-05T17:49:45;6.85;;;3.80;;
64321;SDS011;50659;48.078;16.308;2022-07-05T17:53:48;6.18;;;3.75;;
64321;SDS011;50659;48.078;16.308;2022-07-05T17:57:51;4.50;;;3.25;;
64321;SDS011;50659;48.078;16.308;2022-07-05T18:01:54;7.90;;;3.88;;
64321;SDS011;50659;48.078;16.308;2022-07-05T18:05:59;6.97;;;3.17;;
64321;SDS011;50659;48.078;16.308;2022-07-05T18:10:03;7.93;;;3.70;;
64321;SDS011;50659;48.078;16.308;2022-07-05T18:14:07;3.40;;;3.10;;
64321;SDS011;50659;48.078;16.308;2022-07-05T18:18:10;4.18;;;3.05;;
64321;SDS011;50659;48.078;16.308;2022-07-05T18:22:15;3.30;;;2.90;;
64321;SDS011;50659;48.078;16.308;2022-07-05T18:26:18;3.13;;;2.83;;
64321;SDS011;50659;48.078;16.308;2022-07-05T18:30:42;3.63;;;2.67;;
64321;SDS011;50659;48.078;16.308;2022-07-05T18:34:45;4.82;;;2.75;;
64321;SDS011;50659;48.078;16.308;2022-07-05T18:38:50;5.05;;;2.80;;
64321;SDS011;50659;48.078;16.308;2022-07-05T18:43:00;4.07;;;2.90;;
64321;SDS011;50659;48.078;16.308;2022-07-05T18:47:03;4.10;;;2.90;;
64321;SDS011;50659;48.078;16.308;2022-07-05T18:51:07;4.78;;;3.10;;
64321;SDS011;50659;48.078;16.308;2022-07-05T18:55:11;3.28;;;2.95;;
64321;SDS011;50659;48.078;16.308;2022-07-05T18:59:14;3.47;;;2.80;;
64321;SDS011;50659;48.078;16.308;2022-07-05T19:03:17;3.22;;;2.92;;
64321;SDS011;50659;48.078;16.308;2022-07-05T19:07:20;3.30;;;3.00;;
64321;SDS011;50659;48.078;16.308;2022-07-05T19:11:42;6.00;;;2.90;;
64321;SDS011;50659;48.078;16.308;2022-07-05T19:16:04;3.17;;;2.85;;
64321;SDS011;50659;48.078;16.308;2022-07-05T19:20:07;3.20;;;2.88;;
64321;SDS011;50659;48.078;16.308;2022-07-05T19:24:11;2.85;;;2.53;;
64321;SDS011;50659;48.078;16.308;2022-07-05T19:28:15;3.15;;;2.85;;
64321;SDS011;50659;48.078;16.308;2022-07-05T19:32:19;4.68;;;2.90;;
64321;SDS011;50659;48.078;16.308;2022-07-05T19:36:22;2.90;;;2.70;;
64321;SDS011;50659;48.078;16.308;2022-07-05T19:40:25;3.08;;;2.60;;
64321;SDS011;50659;48.078;16.308;2022-07-05T19:44:39;3.22;;;2.70;;
64321;SDS011;50659;48.078;16.308;2022-07-05T19:48:42;3.10;;;2.80;;
64321;SDS011;50659;48.078;16.308;2022-07-05T19:52:46;2.92;;;2.60;;
64321;SDS011;50659;48.078;16.308;2022-07-05T19:56:49;3.50;;;2.58;;
64321;SDS011;50659;48.078;16.308;2022-07-05T20:00:53;3.22;;;2.60;;
64321;SDS011;50659;48.078;16.308;2022-07-05T20:04:56;3.92;;;2.45;;
64321;SDS011;50659;48.078;16.308;2022-07-05T20:08:59;4.50;;;2.38;;
64321;SDS011;50659;48.078;16.308;2022-07-05T20:13:02;2.97;;;2.20;;
64321;SDS011;50659;48.078;16.308;2022-07-05T20:17:07;2.85;;;2.30;;
64321;SDS011;50659;48.078;16.308;2022-07-05T20:21:11;4.60;;;2.70;;
64321;SDS011;50659;48.078;16.308;2022-07-05T20:25:14;3.05;;;2.50;;
64321;SDS011;50659;48.078;16.308;2022-07-05T20:29:17;2.90;;;2.55;;
64321;SDS011;50659;48.078;16.308;2022-07-05T20:33:21;5.43;;;2.30;;
64321;SDS011;50659;48.078;16.308;2022-07-05T20:37:25;4.05;;;2.30;;
64321;SDS011;50659;48.078;16.308;2022-07-05T20:41:28;2.53;;;2.30;;
64321;SDS011;50659;48.078;16.308;2022-07-05T20:45:31;4.47;;;2.50;;
64321;SDS011;50659;48.078;16.308;2022-07-05T20:49:36;2.97;;;2.28;;
64321;SDS011;50659;48.078;16.308;2022-07-05T20:53:39;4.90;;;2.50;;
64321;SDS011;50659;48.078;16.308;2022-07-05T20:57:42;3.03;;;2.42;;
64321;SDS011;50659;48.078;16.308;2022-07-05T21:01:46;3.17;;;2.40;;
64321;SDS011;50659;48.078;16.308;2022-07-05T21:05:50;3.40;;;2.30;;
64321;SDS011;50659;48.078;16.308;2022-07-05T21:09:54;3.78;;;2.35;;
64321;SDS011;50659;48.078;16.308;2022-07-05T21:14:00;3.70;;;2.35;;
64321;SDS011;50659;48.078;16.308;2022-07-05T21:18:03;4.30;;;2.50;;
64321;SDS011;50659;48.078;16.308;2022-07-05T21:22:08;3.13;;;2.25;;
64321;SDS011;50659;48.078;16.308;2022-07-05T21:26:11;3.92;;;2.47;;
64321;SDS011;50659;48.078;16.308;2022-07-05T21:30:14;3.95;;;2.50;;
64321;SDS011;50659;48.078;16.308;2022-07-05T21:34:18;6.30;;;2.90;;
64321;SDS011;50659;48.078;16.308;2022-07-05T21:38:22;5.63;;;2.50;;
64321;SDS011;50659;48.078;16.308;2022-07-05T21:42:27;4.78;;;2.60;;
64321;SDS011;50659;48.078;16.308;2022-07-05T21:46:30;3.42;;;2.60;;
64321;SDS011;50659;48.078;16.308;2022-07-05T21:50:34;2.90;;;2.50;;
64321;SDS011;50659;48.078;16.308;2022-07-05T21:54:39;5.03;;;2.50;;
64321;SDS011;50659;48.078;16.308;2022-07-05T21:58:42;3.35;;;2.60;;
64321;SDS011;50659;48.078;16.308;2022-07-05T22:03:02;3.53;;;2.60;;
64321;SDS011;50659;48.078;16.308;2022-07-05T22:07:23;4.40;;;2.60;;
64321;SDS011;50659;48.078;16.308;2022-07-05T22:11:28;4.47;;;2.78;;
64321;SDS011;50659;48.078;16.308;2022-07-05T22:15:40;2.83;;;2.50;;
64321;SDS011;50659;48.078;16.308;2022-07-05T22:19:43;3.03;;;2.72;;
64321;SDS011;50659;48.078;16.308;2022-07-05T22:23:46;3.88;;;2.50;;
64321;SDS011;50659;48.078;16.308;2022-07-05T22:27:50;3.75;;;2.70;;
64321;SDS011;50659;48.078;16.308;2022-07-05T22:31:53;2.88;;;2.53;;
64321;SDS011;50659;48.078;16.308;2022-07-05T22:35:56;6.50;;;2.50;;
64321;SDS011;50659;48.078;16.308;2022-07-05T22:40:00;2.85;;;2.55;;
64321;SDS011;50659;48.078;16.308;2022-07-05T22:44:05;2.65;;;2.45;;
64321;SDS011;50659;48.078;16.308;2022-07-05T22:48:08;3.10;;;2.80;;
64321;SDS011;50659;48.078;16.308;2022-07-05T22:52:11;2.97;;;2.70;;
64321;SDS011;50659;48.078;16.308;2022-07-05T22:56:14;3.95;;;2.50;;
64321;SDS011;50659;48.078;16.308;2022-07-05T23:00:19;4.95;;;2.88;;
64321;SDS011;50659;48.078;16.308;2022-07-05T23:04:22;7.05;;;2.85;;
64321;SDS011;50659;48.078;16.308;2022-07-05T23:08:25;2.97;;;2.65;;
64321;SDS011;50659;48.078;16.308;2022-07-05T23:12:28;3.58;;;3.28;;
64321;SDS011;50659;48.078;16.308;2022-07-05T23:16:33;4.28;;;3.28;;
64321;SDS011;50659;48.078;16.308;2022-07-05T23:20:36;4.32;;;3.22;;
64321;SDS011;50659;48.078;16.308;2022-07-05T23:24:39;4.40;;;3.20;;
64321;SDS011;50659;48.078;16.308;2022-07-05T23:29:01;4.22;;;3.50;;
64321;SDS011;50659;48.078;16.308;2022-07-05T23:33:05;4.53;;;3.58;;
64321;SDS011;50659;48.078;16.308;2022-07-05T23:37:08;4.53;;;3.75;;
64321;SDS011;50659;48.078;16.308;2022-07-05T23:41:12;4.25;;;3.60;;
64321;SDS011;50659;48.078;16.308;2022-07-05T23:45:15;5.05;;;3.70;;
64321;SDS011;50659;48.078;16.308;2022-07-05T23:49:19;4.63;;;4.22;;
64321;SDS011;50659;48.078;16.308;2022-07-05T23:53:22;4.82;;;4.00;;
64321;SDS011;50659;48.078;16.308;2022-07-05T23:57:25;5.32;;;4.30;;
